Time;durP1;ratioP1;P1;durP2;ratioP2;P2;SDS_P1;SDS_P2;PMS_P1;PMS_P2;Temp;Humidity;BMP_temperature;BMP_pressure;BME280_temperature;BME280_humidity;BME280_pressure;Samples;Min_cycle;Max_cycle;Signal;HPM_P1;HPM_P2
2021/05/03 00:00:21;;;;;;;6.05;4.13;;;;;;;4.94;100.00;102171.81;5057769;28;20052;-79
2021/05/03 00:02:46;;;;;;;13.10;5.70;;;;;;;4.82;100.00;102174.41;5054871;28;20029;-78
2021/05/03 00:05:20;;;;;;;6.95;5.07;;;;;;;4.82;100.00;102177.94;5060393;28;20522;-78
2021/05/03 00:07:46;;;;;;;13.75;5.15;;;;;;;4.73;100.00;102164.84;5055821;28;20048;-78
2021/05/03 00:10:11;;;;;;;7.97;5.07;;;;;;;4.62;100.00;102166.56;5062868;28;20068;-78
2021/05/03 00:12:36;;;;;;;9.32;5.03;;;;;;;4.63;100.00;102163.06;5057160;28;20029;-78
2021/05/03 00:15:02;;;;;;;6.07;5.10;;;;;;;4.62;100.00;102166.56;5060671;28;20071;-78
2021/05/03 00:17:27;;;;;;;8.93;4.97;;;;;;;4.51;100.00;102168.28;5062909;28;20038;-79
2021/05/03 00:19:53;;;;;;;8.63;5.78;;;;;;;4.57;100.00;102163.06;5061160;28;20046;-78
2021/05/03 00:22:18;;;;;;;11.55;5.38;;;;;;;4.54;100.00;102163.06;5057911;28;20028;-78
2021/05/03 00:24:43;;;;;;;9.82;6.00;;;;;;;4.50;100.00;102156.94;5049692;28;20043;-78
2021/05/03 00:27:08;;;;;;;11.38;6.25;;;;;;;4.50;100.00;102151.69;5059019;28;20067;-78
2021/05/03 00:29:34;;;;;;;8.63;5.68;;;;;;;4.49;100.00;102146.47;5057354;28;20029;-78
2021/05/03 00:31:59;;;;;;;9.50;6.25;;;;;;;4.42;100.00;102150.84;5055251;28;20051;-79
2021/05/03 00:34:24;;;;;;;13.40;7.13;;;;;;;4.36;100.00;102143.81;5061274;28;20100;-79
2021/05/03 00:36:49;;;;;;;9.80;6.32;;;;;;;4.34;100.00;102136.84;5061413;28;20032;-79
2021/05/03 00:39:15;;;;;;;11.27;6.00;;;;;;;4.37;100.00;102132.50;5061436;28;20036;-79
2021/05/03 00:41:40;;;;;;;8.50;6.15;;;;;;;4.31;100.00;102135.06;5057220;28;20033;-79
2021/05/03 00:44:06;;;;;;;9.68;7.13;;;;;;;4.36;100.00;102137.69;5062175;28;21507;-79
2021/05/03 00:46:31;;;;;;;9.80;6.47;;;;;;;4.30;100.00;102130.72;5061036;28;20024;-79
2021/05/03 00:48:56;;;;;;;10.18;7.05;;;;;;;4.35;100.00;102128.97;5059373;28;20042;-79
2021/05/03 00:51:22;;;;;;;10.55;7.07;;;;;;;4.37;100.00;102131.63;5057553;28;20029;-79
2021/05/03 00:53:47;;;;;;;9.75;6.75;;;;;;;4.40;100.00;102135.09;5056577;28;20523;-79
2021/05/03 00:56:12;;;;;;;10.18;7.10;;;;;;;4.44;100.00;102128.13;5060905;28;20103;-79
2021/05/03 00:58:38;;;;;;;11.95;7.20;;;;;;;4.51;100.00;102135.09;5058776;28;20064;-79
2021/05/03 01:01:04;;;;;;;12.27;8.00;;;;;;;4.61;100.00;102133.38;5054466;28;20103;-79
2021/05/03 01:03:30;;;;;;;10.80;7.07;;;;;;;4.60;100.00;102136.88;5057263;28;20380;-79
2021/05/03 01:05:56;;;;;;;9.88;7.22;;;;;;;4.63;100.00;102134.28;5059868;28;20104;-79
2021/05/03 01:08:21;;;;;;;9.85;7.78;;;;;;;4.72;100.00;102131.66;5059487;28;20108;-79
2021/05/03 01:10:46;;;;;;;12.32;8.93;;;;;;;4.68;100.00;102135.16;5055467;28;20028;-80
2021/05/03 01:13:12;;;;;;;14.50;8.13;;;;;;;4.62;100.00;102132.53;5057067;28;20077;-79
2021/05/03 01:15:37;;;;;;;9.88;8.27;;;;;;;4.67;100.00;102138.66;5057302;28;20017;-79
2021/05/03 01:18:04;;;;;;;12.38;8.52;;;;;;;4.70;100.00;102128.16;5060800;28;20063;-79
2021/05/03 01:20:36;;;;;;;12.10;8.65;;;;;;;4.66;100.00;102140.34;5053253;28;20048;-79
2021/05/03 01:23:03;;;;;;;17.60;8.98;;;;;;;4.58;100.00;102133.41;5058051;28;20504;-79
2021/05/03 01:25:31;;;;;;;14.73;8.95;;;;;;;4.54;100.00;102132.50;5055139;28;20037;-79
2021/05/03 01:28:02;;;;;;;15.98;8.82;;;;;;;4.53;100.00;102129.91;5061376;28;20023;-79
2021/05/03 01:30:30;;;;;;;13.35;9.43;;;;;;;4.46;100.00;102134.22;5060605;28;20032;-79
2021/05/03 01:32:56;;;;;;;12.27;9.52;;;;;;;4.52;100.00;102130.75;5057779;28;20029;-79
2021/05/03 01:35:21;;;;;;;13.43;9.63;;;;;;;4.51;100.00;102129.88;5060407;28;20044;-79
2021/05/03 01:37:52;;;;;;;14.23;10.38;;;;;;;4.56;100.00;102127.25;5060816;28;20055;-79
2021/05/03 01:40:17;;;;;;;15.70;10.23;;;;;;;4.41;100.00;102113.28;5059398;28;20403;-79
2021/05/03 01:42:42;;;;;;;13.90;10.30;;;;;;;4.37;100.00;102121.16;5059425;28;20032;-79
2021/05/03 01:45:09;;;;;;;14.30;10.77;;;;;;;4.36;100.00;102112.41;5057492;28;20098;-79
2021/05/03 01:47:35;;;;;;;21.73;11.02;;;;;;;4.33;100.00;102116.78;5061177;28;20024;-79
2021/05/03 01:50:00;;;;;;;17.00;11.18;;;;;;;4.27;100.00;102112.41;5059345;28;20129;-79
2021/05/03 01:52:26;;;;;;;19.10;10.82;;;;;;;4.30;100.00;102116.75;5059064;28;20028;-79
2021/05/03 01:54:51;;;;;;;13.45;10.25;;;;;;;4.27;100.00;102119.41;5055445;28;20031;-79
2021/05/03 01:57:18;;;;;;;12.23;9.63;;;;;;;4.26;100.00;102110.63;5053031;28;20146;-79
2021/05/03 01:59:44;;;;;;;17.88;10.68;;;;;;;4.28;100.00;102105.44;5055573;28;20101;-79
2021/05/03 02:02:09;;;;;;;16.05;9.90;;;;;;;4.29;100.00;102104.56;5053689;28;20033;-79
2021/05/03 02:04:34;;;;;;;12.63;9.98;;;;;;;4.21;100.00;102098.41;5055830;28;20112;-79
2021/05/03 02:07:00;;;;;;;15.30;10.13;;;;;;;4.30;100.00;102101.06;5052933;28;20040;-78
2021/05/03 02:09:25;;;;;;;15.70;10.77;;;;;;;4.30;100.00;102104.53;5051849;28;20389;-79
2021/05/03 02:11:50;;;;;;;13.00;9.05;;;;;;;4.24;100.00;102101.06;5053158;28;20111;-79
2021/05/03 02:14:16;;;;;;;15.95;9.65;;;;;;;4.37;100.00;102097.59;5059680;28;20626;-78
2021/05/03 02:16:42;;;;;;;13.65;9.32;;;;;;;4.39;100.00;102106.31;5057996;28;20024;-78
2021/05/03 02:19:08;;;;;;;15.57;9.50;;;;;;;4.33;100.00;102096.72;5066102;28;20025;-79
2021/05/03 02:21:33;;;;;;;16.98;9.63;;;;;;;4.44;100.00;102101.09;5056947;28;20032;-79
2021/05/03 02:23:58;;;;;;;12.73;8.90;;;;;;;4.34;100.00;102101.06;5059357;28;20035;-78
2021/05/03 02:26:23;;;;;;;15.32;9.95;;;;;;;4.41;100.00;102094.94;5054300;28;20033;-78
2021/05/03 02:28:51;;;;;;;13.88;9.05;;;;;;;4.46;100.00;102097.56;5059178;28;20035;-78
2021/05/03 02:31:18;;;;;;;16.98;10.23;;;;;;;4.51;100.00;102103.69;5048639;28;20103;-78
2021/05/03 02:33:43;;;;;;;13.40;9.30;;;;;;;4.54;100.00;102097.59;5072536;28;20028;-79
2021/05/03 02:36:09;;;;;;;17.08;10.23;;;;;;;4.61;100.00;102100.19;5062563;28;20033;-79
2021/05/03 02:38:34;;;;;;;14.30;9.57;;;;;;;4.72;100.00;102091.47;5068560;28;20037;-78
2021/05/03 02:40:59;;;;;;;14.27;9.82;;;;;;;4.74;100.00;102103.72;5059416;28;20340;-78
2021/05/03 02:43:25;;;;;;;15.05;10.45;;;;;;;4.76;100.00;102080.13;5078660;28;20101;-79
2021/05/03 02:45:50;;;;;;;14.93;11.30;;;;;;;4.68;100.00;102088.88;5055866;28;20033;-79
2021/05/03 02:48:15;;;;;;;13.75;9.82;;;;;;;4.71;100.00;102097.59;5062488;28;20031;-79
2021/05/03 02:50:41;;;;;;;15.35;10.50;;;;;;;4.67;100.00;102088.88;5055592;28;20028;-79
2021/05/03 02:53:06;;;;;;;13.63;9.65;;;;;;;4.66;100.00;102097.59;5060744;28;20032;-79
2021/05/03 02:55:32;;;;;;;14.43;10.60;;;;;;;4.59;100.00;102083.63;5062043;28;20025;-79
2021/05/03 02:57:58;;;;;;;14.38;9.93;;;;;;;4.54;100.00;102090.63;5058772;28;20047;-79
2021/05/03 03:00:32;;;;;;;17.10;10.48;;;;;;;4.46;100.00;102092.34;5058025;28;20041;-79
2021/05/03 03:03:01;;;;;;;19.80;9.60;;;;;;;4.40;100.00;102074.88;5061215;28;20349;-79
2021/05/03 03:05:27;;;;;;;11.68;9.55;;;;;;;4.35;100.00;102084.47;5058586;28;20029;-79
2021/05/03 03:07:53;;;;;;;11.13;9.27;;;;;;;4.31;100.00;102069.63;5064415;28;20472;-79
2021/05/03 03:10:20;;;;;;;12.25;9.00;;;;;;;4.32;100.00;102076.66;5062849;28;20037;-79
2021/05/03 03:12:46;;;;;;;10.48;8.10;;;;;;;4.32;100.00;102073.16;5061093;28;20111;-79
2021/05/03 03:15:14;;;;;;;10.82;8.65;;;;;;;4.45;100.00;102074.03;5059584;28;20029;-79
2021/05/03 03:17:39;;;;;;;15.20;8.77;;;;;;;4.40;100.00;102069.66;5064003;28;20086;-79
2021/05/03 03:20:07;;;;;;;13.85;9.52;;;;;;;4.50;100.00;102073.16;5057402;28;20519;-79
2021/05/03 03:22:33;;;;;;;20.38;10.25;;;;;;;4.41;100.00;102065.28;5064012;28;20114;-79
2021/05/03 03:24:58;;;;;;;17.25;11.32;;;;;;;4.45;100.00;102055.69;5061355;28;20486;-79
2021/05/03 03:27:24;;;;;;;15.75;9.63;;;;;;;4.41;100.00;102060.94;5066226;28;20047;-79
2021/05/03 03:29:49;;;;;;;13.30;9.57;;;;;;;4.37;100.00;102067.06;5065210;28;20463;-79
2021/05/03 03:32:14;;;;;;;18.13;9.88;;;;;;;4.46;100.00;102058.31;5065229;28;20068;-79
2021/05/03 03:34:39;;;;;;;13.75;9.63;;;;;;;4.33;100.00;102054.84;5061214;28;20473;-79
2021/05/03 03:37:05;;;;;;;18.75;11.45;;;;;;;4.29;100.00;102046.97;5062134;28;20029;-79
2021/05/03 03:39:30;;;;;;;15.07;9.55;;;;;;;4.43;100.00;102060.94;5063689;28;20029;-79
2021/05/03 03:41:55;;;;;;;17.40;10.52;;;;;;;4.53;100.00;102059.22;5053139;28;20036;-79
2021/05/03 03:44:21;;;;;;;17.00;9.55;;;;;;;4.50;100.00;102072.28;5062250;28;20029;-80
2021/05/03 03:46:46;;;;;;;15.85;10.05;;;;;;;4.63;100.00;102058.31;5061437;28;20031;-79
2021/05/03 03:49:11;;;;;;;14.57;9.85;;;;;;;4.62;100.00;102059.22;5058467;28;20540;-79
2021/05/03 03:51:36;;;;;;;14.88;8.88;;;;;;;4.70;100.00;102061.81;5064141;28;20025;-79
2021/05/03 03:54:02;;;;;;;16.50;10.23;;;;;;;4.68;100.00;102067.06;5059645;28;20577;-79
2021/05/03 03:56:28;;;;;;;20.70;9.82;;;;;;;4.75;100.00;102067.91;5057424;28;20028;-79
2021/05/03 03:58:54;;;;;;;22.60;10.82;;;;;;;4.76;100.00;102067.91;5052843;28;20078;-78
2021/05/03 04:01:20;;;;;;;20.50;9.77;;;;;;;4.83;100.00;102063.56;5058381;28;20056;-78
2021/05/03 04:04:00;;;;;;;15.57;10.07;;;;;;;4.80;100.00;102069.66;5066122;28;20024;-78
2021/05/03 04:06:39;;;;;;;15.63;9.55;;;;;;;4.80;100.00;102059.16;5066742;28;20104;-78
2021/05/03 04:09:31;;;;;;;13.88;9.27;;;;;;;4.82;100.00;102059.16;5065989;28;20065;-78
2021/05/03 04:27:51;;;;;;;15.05;8.63;;;;;;;4.87;100.00;102055.69;5052858;28;20021;-78
2021/05/03 04:30:17;;;;;;;17.50;7.70;;;;;;;4.85;100.00;102046.06;5054308;28;20029;-78
2021/05/03 04:32:42;;;;;;;11.98;7.90;;;;;;;4.88;100.00;102043.47;5052712;28;20033;-78
2021/05/03 04:35:08;;;;;;;13.13;8.23;;;;;;;4.81;100.00;102050.44;5054917;28;20498;-79
2021/05/03 04:37:33;;;;;;;17.58;7.40;;;;;;;4.84;100.00;102047.81;5059791;28;20052;-79
2021/05/03 04:39:59;;;;;;;15.48;8.02;;;;;;;4.83;100.00;102046.09;5060057;28;20139;-78
2021/05/03 04:42:24;;;;;;;11.43;7.18;;;;;;;4.82;100.00;102046.97;5055319;28;20039;-78
2021/05/03 04:44:50;;;;;;;14.32;8.40;;;;;;;4.85;100.00;102051.31;5061135;28;20040;-78
2021/05/03 04:47:15;;;;;;;9.73;7.43;;;;;;;4.90;100.00;102050.41;5057648;28;20036;-79
2021/05/03 04:49:40;;;;;;;11.65;7.35;;;;;;;4.89;100.00;102043.44;5063805;28;20025;-79
2021/05/03 04:52:06;;;;;;;12.88;7.72;;;;;;;4.94;100.00;102051.31;5065400;28;20032;-79
2021/05/03 04:54:32;;;;;;;12.98;7.13;;;;;;;4.89;100.00;102046.06;5070334;28;20024;-79
2021/05/03 04:56:57;;;;;;;14.80;8.18;;;;;;;4.89;100.00;102050.44;5067204;28;20044;-79
2021/05/03 04:59:22;;;;;;;11.80;7.20;;;;;;;4.88;100.00;102043.47;5059738;28;20045;-79
2021/05/03 05:01:48;;;;;;;9.07;6.55;;;;;;;4.97;100.00;102042.53;5058313;28;20616;-78
2021/05/03 05:04:13;;;;;;;12.68;7.35;;;;;;;4.97;100.00;102045.16;5060304;28;20025;-80
2021/05/03 05:06:39;;;;;;;13.80;7.07;;;;;;;4.99;100.00;102053.91;5056166;28;20039;-80
2021/05/03 05:09:05;;;;;;;10.65;7.57;;;;;;;5.07;100.00;102053.03;5061124;28;20032;-78
2021/05/03 05:11:34;;;;;;;12.07;7.47;;;;;;;5.07;100.00;102050.41;5058323;28;20020;-80
2021/05/03 05:14:00;;;;;;;14.50;8.55;;;;;;;5.10;100.00;102055.63;5062121;28;20454;-78
2021/05/03 05:16:25;;;;;;;14.00;8.18;;;;;;;5.13;100.00;102050.38;5054976;28;20036;-78
2021/05/03 05:18:50;;;;;;;18.08;7.60;;;;;;;5.17;100.00;102053.84;5058226;28;20027;-77
2021/05/03 05:21:16;;;;;;;11.93;7.88;;;;;;;5.26;100.00;102053.81;5058894;28;20141;-79
2021/05/03 05:23:41;;;;;;;14.15;8.48;;;;;;;5.27;100.00;102050.34;5053918;28;20396;-78
2021/05/03 05:26:08;;;;;;;15.13;8.10;;;;;;;5.32;100.00;102048.59;5056559;28;20025;-79
2021/05/03 05:28:34;;;;;;;12.13;8.90;;;;;;;5.36;100.00;102049.44;5057054;28;20028;-79
2021/05/03 05:30:59;;;;;;;17.83;10.25;;;;;;;5.37;100.00;102044.19;5046394;28;20481;-78
2021/05/03 05:33:25;;;;;;;16.70;9.07;;;;;;;5.37;100.00;102038.97;5049968;28;20036;-78
2021/05/03 05:35:50;;;;;;;17.75;9.07;;;;;;;5.43;100.00;102043.31;5045269;28;20034;-78
2021/05/03 05:38:15;;;;;;;14.00;9.32;;;;;;;5.48;100.00;102036.28;5054993;28;20032;-80
2021/05/03 05:40:40;;;;;;;14.90;9.63;;;;;;;5.55;100.00;102031.88;5047785;28;20036;-80
2021/05/03 05:43:06;;;;;;;16.15;11.27;;;;;;;5.61;100.00;102037.09;5052232;28;20048;-79
2021/05/03 05:45:31;;;;;;;17.40;10.60;;;;;;;5.63;100.00;102043.22;5047311;28;20377;-79
2021/05/03 05:47:57;;;;;;;20.25;10.52;;;;;;;5.73;100.00;102037.03;5055990;28;20040;-79
2021/05/03 05:50:22;;;;;;;20.08;11.52;;;;;;;5.69;100.00;102037.94;5055365;28;20048;-79
2021/05/03 05:52:47;;;;;;;16.73;11.75;;;;;;;5.75;100.00;102031.78;5058364;28;20042;-79
2021/05/03 05:55:13;;;;;;;21.02;12.23;;;;;;;5.82;100.00;102029.09;5058342;28;20043;-80
2021/05/03 05:57:38;;;;;;;18.90;11.73;;;;;;;5.77;100.00;102030.88;5051252;28;20025;-79
2021/05/03 06:00:04;;;;;;;22.73;13.15;;;;;;;5.78;100.00;102037.03;5057980;28;20080;-79
2021/05/03 06:02:29;;;;;;;19.52;12.50;;;;;;;5.86;100.00;102025.56;5068380;28;20008;-79
2021/05/03 06:04:54;;;;;;;19.92;13.25;;;;;;;5.97;100.00;102028.16;5071023;28;20457;-79
2021/05/03 06:07:20;;;;;;;23.02;13.77;;;;;;;6.01;100.00;102029.03;5067882;28;20069;-80
2021/05/03 06:09:45;;;;;;;19.08;14.13;;;;;;;6.09;100.00;102030.72;5077612;28;20040;-80
2021/05/03 06:12:10;;;;;;;21.52;14.65;;;;;;;6.12;100.00;102030.69;5064970;28;20136;-80
2021/05/03 06:14:36;;;;;;;26.92;16.13;;;;;;;6.27;100.00;102031.44;5050071;28;20055;-79
2021/05/03 06:17:01;;;;;;;22.88;15.52;;;;;;;6.33;100.00;102027.06;5055224;28;20109;-79
2021/05/03 06:19:26;;;;;;;22.23;15.75;;;;;;;6.27;100.00;102031.44;5053462;28;20031;-80
2021/05/03 06:21:52;;;;;;;23.73;16.17;;;;;;;6.45;100.00;102039.19;5050475;28;20022;-79
2021/05/03 06:24:17;;;;;;;25.60;16.20;;;;;;;6.50;100.00;102042.66;5059168;28;20127;-79
2021/05/03 06:26:42;;;;;;;26.65;16.83;;;;;;;6.43;100.00;102031.34;5051670;28;20032;-79
2021/05/03 06:29:07;;;;;;;28.45;17.58;;;;;;;6.37;100.00;102033.13;5059742;28;20426;-79
2021/05/03 06:31:33;;;;;;;27.58;17.00;;;;;;;6.43;100.00;102038.34;5057759;28;20028;-80
2021/05/03 06:33:58;;;;;;;23.70;16.88;;;;;;;6.62;100.00;102025.91;5055221;28;20029;-80
2021/05/03 06:36:24;;;;;;;26.85;17.63;;;;;;;6.74;100.00;102028.44;5053739;28;20054;-79
2021/05/03 06:38:49;;;;;;;26.85;18.83;;;;;;;6.74;100.00;102028.44;5057682;28;20029;-79
2021/05/03 06:41:14;;;;;;;33.88;18.95;;;;;;;6.97;100.00;102034.31;5050413;28;20031;-79
2021/05/03 06:43:39;;;;;;;27.65;19.17;;;;;;;6.94;100.00;102033.50;5054989;28;20089;-79
2021/05/03 06:46:05;;;;;;;29.17;20.63;;;;;;;7.10;100.00;102037.69;5052521;28;20047;-79
2021/05/03 06:48:30;;;;;;;30.60;21.23;;;;;;;7.29;100.00;102029.59;5058016;28;20028;-79
2021/05/03 06:50:55;;;;;;;39.78;21.23;;;;;;;7.50;100.00;102029.34;5033443;28;20021;-80
2021/05/03 06:53:21;;;;;;;32.80;21.50;;;;;;;7.68;100.00;102022.94;5053854;28;20032;-80
2021/05/03 06:55:46;;;;;;;38.42;23.50;;;;;;;7.82;100.00;102020.13;5051646;28;20665;-80
2021/05/03 06:58:13;;;;;;;45.50;25.63;;;;;;;7.93;100.00;102028.72;5046602;28;20029;-81
2021/05/03 07:00:40;;;;;;;39.78;26.63;;;;;;;7.94;100.00;102027.88;5052880;28;20040;-81
2021/05/03 07:03:10;;;;;;;46.78;29.45;;;;;;;8.17;100.00;102036.28;5054798;28;20421;-80
2021/05/03 07:05:37;;;;;;;41.45;29.45;;;;;;;8.35;100.00;102035.13;5049198;28;20032;-80
2021/05/03 07:08:03;;;;;;;42.28;30.17;;;;;;;8.61;100.00;102041.75;5052968;28;20409;-82
2021/05/03 07:10:28;;;;;;;49.60;31.20;;;;;;;8.48;100.00;102031.44;5050488;28;20021;-81
2021/05/03 07:12:54;;;;;;;45.20;31.88;;;;;;;8.24;100.00;102048.47;5051161;28;20084;-82
2021/05/03 07:15:19;;;;;;;52.70;35.20;;;;;;;8.42;100.00;102036.78;5047371;28;20021;-80
2021/05/03 07:17:46;;;;;;;54.13;36.53;;;;;;;8.44;100.00;102032.38;5042894;28;20032;-79
2021/05/03 07:20:12;;;;;;;54.75;36.10;;;;;;;8.45;100.00;102043.78;5055756;28;21220;-79
2021/05/03 07:22:37;;;;;;;52.40;35.05;;;;;;;8.26;100.00;102040.53;5047283;28;20600;-79
2021/05/03 07:25:07;;;;;;;49.03;35.72;;;;;;;8.21;100.00;102034.47;5050660;28;20037;-79
2021/05/03 07:27:33;;;;;;;53.28;37.00;;;;;;;8.36;100.00;102035.97;5051370;28;20029;-79
2021/05/03 07:29:59;;;;;;;51.70;35.08;;;;;;;8.53;100.00;102037.50;5051276;28;20033;-79
2021/05/03 07:32:24;;;;;;;53.75;37.28;;;;;;;8.50;100.00;102027.00;5052751;28;20115;-79
2021/05/03 07:34:50;;;;;;;57.80;36.90;;;;;;;8.80;100.00;102038.78;5053661;28;20033;-79
2021/05/03 07:37:15;;;;;;;55.33;33.75;;;;;;;8.81;100.00;102019.41;5056617;28;20033;-79
2021/05/03 07:39:42;;;;;;;64.60;36.83;;;;;;;8.63;100.00;102030.28;5049365;28;20662;-79
2021/05/03 07:42:08;;;;;;;55.65;35.42;;;;;;;8.80;100.00;102030.84;5058473;28;20029;-80
2021/05/03 07:44:34;;;;;;;50.65;35.00;;;;;;;8.86;100.00;102029.00;5046181;28;20715;-79
2021/05/03 07:46:59;;;;;;;51.78;36.85;;;;;;;8.99;100.00;102019.97;5051490;28;20033;-79
2021/05/03 07:49:24;;;;;;;56.10;37.55;;;;;;;9.17;100.00;102019.59;5051664;28;20659;-79
2021/05/03 07:51:51;;;;;;;58.65;36.85;;;;;;;9.10;100.00;102020.63;5053718;28;20028;-80
2021/05/03 07:54:16;;;;;;;64.32;38.20;;;;;;;9.14;100.00;102018.81;5052799;28;20040;-80
2021/05/03 07:56:43;;;;;;;54.15;38.15;;;;;;;9.07;100.00;102007.50;5043914;28;20042;-80
2021/05/03 07:59:09;;;;;;;53.72;37.85;;;;;;;9.19;100.00;102007.28;5053133;28;20459;-80
2021/05/03 08:01:34;;;;;;;63.28;38.90;;;;;;;9.23;100.00;102003.66;5060207;28;20043;-80
2021/05/03 08:04:00;;;;;;;50.10;35.80;;;;;;;9.46;100.00;102005.81;5055311;28;20041;-80
2021/05/03 08:06:25;;;;;;;52.65;34.85;;;;;;;9.36;100.00;101999.00;5040576;28;20428;-79
2021/05/03 08:08:51;;;;;;;48.40;33.92;;;;;;;9.46;100.00;102000.53;5057590;28;20037;-80
2021/05/03 08:11:18;;;;;;;44.33;31.98;;;;;;;9.55;100.00;102000.34;5057055;28;20098;-80
2021/05/03 08:13:44;;;;;;;44.90;31.15;;;;;;;9.58;100.00;101988.84;5055575;28;20132;-79
2021/05/03 08:16:15;;;;;;;50.10;32.30;;;;;;;9.83;100.00;101995.31;5042931;28;20164;-80
2021/05/03 08:18:41;;;;;;;45.05;30.75;;;;;;;9.65;100.00;101993.09;5039172;28;20033;-80
2021/05/03 08:21:08;;;;;;;40.60;31.13;;;;;;;9.81;100.00;101993.63;5054934;28;20039;-79
2021/05/03 08:23:33;;;;;;;42.75;30.77;;;;;;;9.83;100.00;101997.94;5046647;28;20033;-80
2021/05/03 08:25:59;;;;;;;49.13;28.85;;;;;;;9.81;100.00;102002.41;5058275;28;20049;-80
2021/05/03 08:28:25;;;;;;;45.03;29.23;;;;;;;9.67;100.00;101991.28;5056004;28;20082;-79
2021/05/03 08:30:51;;;;;;;44.40;30.67;;;;;;;10.08;100.00;102000.88;5071602;28;20029;-80
2021/05/03 08:33:18;;;;;;;40.60;26.83;;;;;;;10.20;100.00;101991.81;5071004;28;20092;-79
2021/05/03 08:35:43;;;;;;;46.03;29.23;;;;;;;10.53;100.00;101995.41;5069617;28;20024;-80
2021/05/03 08:38:09;;;;;;;39.72;28.48;;;;;;;10.73;100.00;101983.44;5068342;28;20361;-80
2021/05/03 08:40:35;;;;;;;40.95;26.38;;;;;;;10.77;100.00;101993.03;5061019;28;20029;-80
2021/05/03 08:43:02;;;;;;;41.17;26.60;;;;;;;10.54;100.00;101993.63;5051268;28;20067;-80
2021/05/03 08:45:29;;;;;;;37.80;26.83;;;;;;;10.39;100.00;101981.66;5053872;28;20049;-80
2021/05/03 08:50:46;;;;;;;41.28;23.67;;;;;;;10.60;100.00;102004.06;5061879;28;20037;-79
2021/05/03 08:53:14;;;;;;;42.83;26.05;;;;;;;10.59;100.00;101994.34;5050828;28;20036;-79
2021/05/03 08:55:40;;;;;;;39.58;27.58;;;;;;;10.72;100.00;101990.50;5054747;28;20067;-79
2021/05/03 08:58:05;;;;;;;33.13;22.63;;;;;;;10.86;100.00;101998.06;5052748;28;20068;-78
2021/05/03 09:00:34;;;;;;;42.20;25.88;;;;;;;10.80;100.00;101995.59;5054515;28;20549;-80
2021/05/03 09:03:00;;;;;;;47.70;29.25;;;;;;;11.15;100.00;101989.31;5055174;28;20033;-78
2021/05/03 09:05:26;;;;;;;35.05;27.63;;;;;;;11.05;100.00;101988.72;5050037;28;20024;-78
2021/05/03 09:07:52;;;;;;;42.30;28.65;;;;;;;11.26;100.00;101975.78;5065336;28;20024;-79
2021/05/03 09:10:19;;;;;;;38.60;29.80;;;;;;;11.15;100.00;101974.31;5059803;28;20032;-79
2021/05/03 09:12:45;;;;;;;41.88;29.00;;;;;;;10.96;100.00;101982.81;5062079;28;20083;-79
2021/05/03 09:15:12;;;;;;;42.70;28.17;;;;;;;11.07;100.00;101975.44;5054649;28;20044;-79
2021/05/03 09:17:40;;;;;;;60.15;28.38;;;;;;;11.18;100.00;101969.84;5053244;28;20476;-80
2021/05/03 09:20:17;;;;;;;35.70;25.60;;;;;;;11.34;100.00;101958.75;5057887;28;20028;-79
2021/05/03 09:22:54;;;;;;;35.25;24.95;;;;;;;11.48;100.00;101968.06;5052979;28;20037;-79
2021/05/03 09:25:30;;;;;;;45.33;23.05;;;;;;;11.56;100.00;101961.63;5055303;28;20126;-79
2021/05/03 09:28:14;;;;;;;33.33;22.13;;;;;;;11.59;100.00;101942.13;5051091;28;20040;-79
2021/05/03 09:30:46;;;;;;;34.47;24.90;;;;;;;11.46;100.00;101954.88;5058773;28;20036;-79
2021/05/03 09:33:28;;;;;;;52.47;27.02;;;;;;;11.88;100.00;101951.81;5057852;28;20032;-80
2021/05/03 09:35:59;;;;;;;44.75;24.98;;;;;;;11.64;100.00;101948.13;5059927;28;20013;-80
2021/05/03 09:38:33;;;;;;;30.75;21.38;;;;;;;11.66;100.00;101948.97;5055280;28;20040;-80
2021/05/03 09:41:16;;;;;;;29.98;20.42;;;;;;;11.75;100.00;101956.63;5067781;28;20025;-80
2021/05/03 09:43:45;;;;;;;36.78;24.60;;;;;;;11.74;100.00;101940.75;5052581;28;20033;-79
2021/05/03 09:46:32;;;;;;;33.83;24.60;;;;;;;11.83;100.00;101938.72;5055662;28;20156;-79
2021/05/03 09:49:05;;;;;;;36.60;25.33;;;;;;;11.87;100.00;101935.06;5047519;28;20033;-80
2021/05/03 09:51:32;;;;;;;33.92;23.70;;;;;;;12.50;100.00;101940.91;5056113;28;20103;-80
2021/05/03 09:54:10;;;;;;;33.17;24.15;;;;;;;12.09;100.00;101932.56;5050893;28;20032;-80
2021/05/03 09:57:21;;;;;;;32.50;23.85;;;;;;;11.90;100.00;101923.53;5051807;28;20036;-79
2021/05/03 09:59:49;;;;;;;33.00;22.17;;;;;;;11.98;100.00;101924.13;5046782;28;20607;-79
2021/05/03 10:02:22;;;;;;;47.95;23.33;;;;;;;11.85;100.00;101933.41;5051581;28;20384;-80
2021/05/03 10:04:49;;;;;;;42.28;24.48;;;;;;;12.04;100.00;101926.56;5043687;28;20405;-79
2021/05/03 10:07:20;;;;;;;46.75;25.65;;;;;;;11.87;100.00;101907.72;5048268;28;20074;-79
2021/05/03 10:09:48;;;;;;;41.40;23.05;;;;;;;11.77;100.00;101906.25;5054248;28;20119;-79
2021/05/03 10:12:16;;;;;;;32.53;22.55;;;;;;;12.55;100.00;101903.59;5060303;28;20029;-79
2021/05/03 10:14:42;;;;;;;40.72;22.40;;;;;;;12.84;100.00;101886.63;5055293;28;20025;-79
2021/05/03 10:17:07;;;;;;;31.55;21.67;;;;;;;12.77;100.00;101891.31;5049441;28;20071;-78
2021/05/03 10:19:34;;;;;;;37.00;22.55;;;;;;;13.23;100.00;101907.31;5048847;28;20052;-78
2021/05/03 10:22:02;;;;;;;35.10;20.88;;;;;;;12.76;100.00;101900.19;5053636;28;20040;-79
2021/05/03 10:24:27;;;;;;;40.60;20.45;;;;;;;12.37;100.00;101898.03;5052607;28;20050;-78
2021/05/03 10:26:53;;;;;;;29.83;20.83;;;;;;;12.17;100.00;101887.28;5050070;28;20032;-77
2021/05/03 10:29:28;;;;;;;28.42;19.35;;;;;;;12.33;100.00;101874.34;5053995;28;20121;-80
2021/05/03 10:32:02;;;;;;;36.75;21.38;;;;;;;12.47;100.00;101879.16;5045217;28;20028;-79
2021/05/03 10:34:43;;;;;;;44.38;20.83;;;;;;;12.28;100.00;101876.28;5047402;28;20033;-79
2021/05/03 10:37:31;;;;;;;30.95;19.58;;;;;;;12.35;100.00;101880.44;5048260;28;20385;-78
2021/05/03 10:40:27;;;;;;;29.90;20.17;;;;;;;12.65;100.00;101870.53;5058665;28;20032;-79
2021/05/03 10:43:01;;;;;;;29.73;19.92;;;;;;;13.74;100.00;101861.88;5054147;28;20032;-78
2021/05/03 10:45:40;;;;;;;26.55;19.30;;;;;;;13.11;100.00;101869.69;5056251;28;20037;-79
2021/05/03 10:48:28;;;;;;;23.17;18.38;;;;;;;13.10;100.00;101852.03;5048683;28;20111;-79
2021/05/03 10:50:54;;;;;;;23.95;16.60;;;;;;;12.89;100.00;101861.66;5053703;28;20020;-79
2021/05/03 10:53:29;;;;;;;36.40;18.67;;;;;;;12.51;100.00;101852.50;5051328;28;20035;-80
2021/05/03 10:56:00;;;;;;;24.02;16.13;;;;;;;12.57;100.00;101848.75;5051348;28;20026;-78
2021/05/03 10:58:26;;;;;;;40.00;18.25;;;;;;;12.98;100.00;101843.66;5056498;28;20060;-79
2021/05/03 11:00:59;;;;;;;28.50;17.60;;;;;;;12.91;100.00;101838.59;5064721;28;20044;-78
2021/05/03 11:03:55;;;;;;;28.98;18.83;;;;;;;12.37;100.00;101846.81;5053373;28;20055;-80
2021/05/03 11:06:36;;;;;;;24.65;17.58;;;;;;;12.11;100.00;101827.41;5052313;28;20707;-79
2021/05/03 11:09:39;;;;;;;31.67;19.55;;;;;;;12.03;100.00;101823.28;5049506;28;20029;-79
2021/05/03 11:12:12;;;;;;;28.52;19.25;;;;;;;12.37;100.00;101825.59;5053217;28;20021;-78
2021/05/03 11:14:40;;;;;;;26.40;20.02;;;;;;;12.24;100.00;101824.31;5046331;28;20030;-79
2021/05/03 11:17:09;;;;;;;26.20;19.75;;;;;;;11.83;100.00;101827.47;5055233;28;20783;-78
2021/05/03 11:22:07;;;;;;;32.47;19.55;;;;;;;10.39;100.00;101841.59;5047285;28;20130;-78
2021/05/03 11:24:39;;;;;;;29.15;19.23;;;;;;;9.15;100.00;101846.47;5038427;28;20068;-77
2021/05/03 11:27:14;;;;;;;20.67;14.25;;;;;;;9.28;100.00;101851.41;5041946;28;20062;-79
2021/05/03 11:32:30;;;;;;;22.77;13.63;;;;;;;10.05;100.00;101829.28;5048497;28;20047;-80
2021/05/03 11:35:02;;;;;;;18.73;14.60;;;;;;;10.57;100.00;101822.59;5047733;28;20080;-80
2021/05/03 11:37:38;;;;;;;21.75;14.68;;;;;;;11.67;100.00;101824.44;5053757;28;20025;-80